This is the latest recevied weather packets stored in our database for station/object KE4LOJ. If no packets are shown the sender has not sent any weather packets the latest 10 day(s).
| Time | Temp. | Humidity | Pressure | Rain* | Wind** | Luminosity | Snow |
|---|---|---|---|---|---|---|---|
| 1777997899 | 26.67° C | 55% | 1017.3 hPa | 0 mm | - | 272 W/m² | - |
| 1777997596 | 26.67° C | 56% | 1017.3 hPa | 0 mm | - | 256 W/m² | - |
| 1777997294 | 26.67° C | 56% | 1017.3 hPa | 0 mm | - | 186 W/m² | - |
| 1777996991 | 27.22° C | 54% | 1017.1 hPa | 0 mm | - | 245 W/m² | - |
| 1777996688 | 27.22° C | 53% | 1017.4 hPa | 0 mm | - | 329 W/m² | - |
| 1777996383 | 27.22° C | 54% | 1017.4 hPa | 0 mm | - | 487 W/m² | - |
| 1777996080 | 26.67° C | 54% | 1017.3 hPa | 0 mm | - | 275 W/m² | - |
| 1777995777 | 26.67° C | 55% | 1017.2 hPa | 0 mm | - | 826 W/m² | - |
| 1777995473 | 27.22° C | 54% | 1017.2 hPa | 0 mm | - | 789 W/m² | - |
| 1777995170 | 26.11° C | 56% | 1017.3 hPa | 0 mm | - | 663 W/m² | - |
| 1777994867 | 27.22° C | 54% | 1017.4 hPa | 0 mm | - | 180 W/m² | - |
| 1777994563 | 27.22° C | 53% | 1017.2 hPa | 0 mm | - | 736 W/m² | - |
| 1777994257 | 27.22° C | 55% | 1017.3 hPa | 0 mm | - | 774 W/m² | - |
| 1777993956 | 26.67° C | 56% | 1017.3 hPa | 0 mm | - | 570 W/m² | - |
| 1777993653 | 27.78° C | 56% | 1017.3 hPa | 0 mm | - | 675 W/m² | - |
| 1777993351 | 26.67° C | 60% | 1017.3 hPa | 0 mm | - | 667 W/m² | - |
| 1777993050 | 26.67° C | 58% | 1017.3 hPa | 0 mm | - | 637 W/m² | - |
| 1777992748 | 26.11° C | 59% | 1017.4 hPa | 0 mm | - | 638 W/m² | - |
| 1777992445 | 26.11° C | 60% | 1017.2 hPa | 0 mm | - | 640 W/m² | - |
| 1777992144 | 26.11° C | 61% | 1017.2 hPa | 0 mm | - | 638 W/m² | - |
| 1777991841 | 25.56° C | 60% | 1017.4 hPa | 0 mm | - | 623 W/m² | - |
| 1777991538 | 26.11° C | 60% | 1017.2 hPa | 0 mm | - | 599 W/m² | - |
| 1777991235 | 25.56° C | 64% | 1017 hPa | 0 mm | - | 584 W/m² | - |
| 1777990932 | 25° C | 64% | 1017.1 hPa | 0 mm | - | 342 W/m² | - |
| 1777990630 | 25° C | 67% | 1017.1 hPa | 0 mm | - | 420 W/m² | - |
* Rain latest hour (hover to see other rain measurements)
** Current wind speed in m/s (hover to see current wind gust speed)